createdAt,value
2023-11-25T00:01:52.311Z,97861.41
2023-11-25T00:04:20.656Z,97878.84
2023-11-25T00:06:47.150Z,97877.19
2023-11-25T00:09:16.960Z,97893.28
2023-11-25T00:11:43.602Z,97881.66
2023-11-25T00:14:10.324Z,97886.22
2023-11-25T00:16:36.965Z,97896.94
2023-11-25T00:19:07.066Z,97905.69
2023-11-25T00:21:33.883Z,97922.50
2023-11-25T00:24:00.457Z,97932.66
2023-11-25T00:26:26.980Z,97916.03
2023-11-25T00:28:53.508Z,97930.94
2023-11-25T00:31:20.153Z,97935.59
2023-11-25T00:33:46.811Z,97947.28
2023-11-25T00:36:13.348Z,97940.31
2023-11-25T00:38:39.877Z,97931.19
2023-11-25T00:41:06.804Z,97932.47
2023-11-25T00:43:33.593Z,97940.88
2023-11-25T00:46:00.167Z,97921.66
2023-11-25T00:48:27.037Z,97917.28
2023-11-25T00:50:53.573Z,97934.03
2023-11-25T00:53:20.426Z,97932.97
2023-11-25T00:55:47.888Z,97930.56
2023-11-25T00:58:14.512Z,97921.41
2023-11-25T01:00:41.061Z,97914.00
2023-11-25T01:03:08.018Z,97917.22
2023-11-25T01:05:34.578Z,97919.66
2023-11-25T01:08:01.071Z,97916.91
2023-11-25T01:10:27.768Z,97892.50
2023-11-25T01:12:54.308Z,97911.13
2023-11-25T01:15:21.135Z,97912.56
2023-11-25T01:17:47.680Z,97903.22
2023-11-25T01:20:15.006Z,97910.19
2023-11-25T01:22:41.760Z,97908.94
2023-11-25T01:25:08.787Z,97920.81
2023-11-25T01:27:36.744Z,97914.59
2023-11-25T01:30:05.594Z,97902.22
2023-11-25T01:32:32.515Z,97907.06
2023-11-25T01:34:58.984Z,97898.69
2023-11-25T01:37:27.855Z,97898.94
2023-11-25T01:39:54.484Z,97888.59
2023-11-25T01:42:21.245Z,97890.69
2023-11-25T01:44:48.010Z,97878.56
2023-11-25T01:47:15.028Z,97865.69
2023-11-25T01:49:43.185Z,97860.94
2023-11-25T01:52:10.449Z,97863.31
2023-11-25T01:54:37.087Z,97868.78
2023-11-25T01:57:03.918Z,97871.66
2023-11-25T01:59:31.420Z,97864.25
2023-11-25T02:01:58.435Z,97839.06
2023-11-25T02:04:25.136Z,97841.09
2023-11-25T02:06:51.678Z,97844.34
2023-11-25T02:09:19.055Z,97845.63
2023-11-25T02:11:58.861Z,97838.22
2023-11-25T02:14:26.408Z,97826.72
2023-11-25T02:16:53.366Z,97833.56
2023-11-25T02:19:20.702Z,97831.44
2023-11-25T02:21:47.243Z,97828.34
2023-11-25T02:24:14.223Z,97831.56
2023-11-25T02:26:40.965Z,97855.75
2023-11-25T02:29:07.502Z,97861.72
2023-11-25T02:31:34.088Z,97866.75
2023-11-25T02:34:00.707Z,97855.75
2023-11-25T02:36:28.043Z,97856.69
2023-11-25T02:38:54.625Z,97857.84
2023-11-25T02:41:21.171Z,97859.00
2023-11-25T02:43:47.838Z,97849.97
2023-11-25T02:46:14.860Z,97848.81
2023-11-25T02:48:41.399Z,97858.00
2023-11-25T02:51:10.748Z,97861.75
2023-11-25T02:53:37.301Z,97869.97
2023-11-25T02:56:03.952Z,97860.16
2023-11-25T02:58:33.614Z,97869.75
2023-11-25T03:01:08.107Z,97865.13
2023-11-25T03:03:38.300Z,97879.50
2023-11-25T03:06:07.233Z,97873.19
2023-11-25T03:08:35.881Z,97859.00
2023-11-25T03:11:09.740Z,97868.09
2023-11-25T03:13:36.253Z,97858.97
2023-11-25T03:16:02.763Z,97855.84
2023-11-25T03:18:29.232Z,97872.25
2023-11-25T03:20:55.692Z,97865.09
2023-11-25T03:23:22.308Z,97865.16
2023-11-25T03:25:48.884Z,97876.69
2023-11-25T03:28:16.304Z,97876.69
2023-11-25T03:30:42.819Z,97854.75
2023-11-25T03:33:10.814Z,97859.13
2023-11-25T03:35:37.544Z,97873.38
2023-11-25T03:38:04.123Z,97870.81
2023-11-25T03:40:30.970Z,97866.31
2023-11-25T03:42:59.617Z,97871.19
2023-11-25T03:45:27.265Z,97871.91
2023-11-25T03:47:54.357Z,97872.00
2023-11-25T03:50:20.920Z,97872.28
2023-11-25T03:52:47.480Z,97868.88
2023-11-25T03:55:15.023Z,97887.56
2023-11-25T03:57:44.330Z,97894.50
2023-11-25T04:00:17.909Z,97887.84
2023-11-25T04:02:49.202Z,97888.88
2023-11-25T04:05:19.760Z,97889.50
2023-11-25T04:07:46.819Z,97886.03
2023-11-25T04:10:14.444Z,97892.78
2023-11-25T04:12:42.959Z,97886.81
2023-11-25T04:15:13.851Z,97878.81
2023-11-25T04:17:41.374Z,97874.31
2023-11-25T04:20:14.341Z,97874.31
2023-11-25T04:22:46.606Z,97882.53
2023-11-25T04:25:14.998Z,97880.66
2023-11-25T04:27:48.233Z,97885.34
2023-11-25T04:30:17.017Z,97882.81
2023-11-25T04:32:44.913Z,97882.63
2023-11-25T04:35:11.831Z,97884.94
2023-11-25T04:37:38.823Z,97859.19
2023-11-25T04:40:06.713Z,97876.19
2023-11-25T04:42:33.918Z,97874.13
2023-11-25T04:45:00.989Z,97865.06
2023-11-25T04:47:30.209Z,97869.81
2023-11-25T04:49:56.754Z,97876.41
2023-11-25T04:52:23.583Z,97895.66
2023-11-25T04:54:51.083Z,97893.56
2023-11-25T04:57:17.799Z,97898.47
2023-11-25T04:59:44.405Z,97893.47
2023-11-25T05:02:11.108Z,97888.81
2023-11-25T05:04:37.809Z,97894.28
2023-11-25T05:07:05.846Z,97889.72
2023-11-25T05:09:33.101Z,97904.63
2023-11-25T05:12:00.871Z,97901.94
2023-11-25T05:14:27.925Z,97903.97
2023-11-25T05:16:57.056Z,97908.09
2023-11-25T05:19:23.844Z,97887.19
2023-11-25T05:21:50.470Z,97882.97
2023-11-25T05:24:16.975Z,97898.13
2023-11-25T05:26:43.533Z,97895.38
2023-11-25T05:29:10.077Z,97888.16
2023-11-25T05:31:37.598Z,97886.03
2023-11-25T05:34:05.967Z,97885.84
2023-11-25T05:36:34.107Z,97877.53
2023-11-25T05:39:01.417Z,97883.72
2023-11-25T05:41:31.415Z,97879.53
2023-11-25T05:43:58.890Z,97872.13
2023-11-25T05:46:25.714Z,97870.88
2023-11-25T05:48:53.624Z,97872.53
2023-11-25T05:51:20.368Z,97885.31
2023-11-25T05:53:47.343Z,97863.97
2023-11-25T05:56:13.901Z,97884.44
2023-11-25T05:58:40.408Z,97885.88
2023-11-25T06:01:07.184Z,97897.38
2023-11-25T06:03:33.932Z,97887.00
2023-11-25T06:06:01.418Z,97900.88
2023-11-25T06:08:27.916Z,97903.06
2023-11-25T06:10:55.281Z,97896.28
2023-11-25T06:13:21.864Z,97897.63
2023-11-25T06:15:48.555Z,97893.72
2023-11-25T06:18:15.849Z,97919.53
2023-11-25T06:20:42.655Z,97916.50
2023-11-25T06:23:09.187Z,97895.03
2023-11-25T06:25:35.789Z,97899.00
2023-11-25T06:28:02.277Z,97918.09
2023-11-25T06:30:28.799Z,97918.53
2023-11-25T06:32:55.291Z,97917.78
2023-11-25T06:35:24.833Z,97903.66
2023-11-25T06:37:53.007Z,97910.50
2023-11-25T06:40:19.630Z,97908.63
2023-11-25T06:42:46.205Z,97900.06
2023-11-25T06:45:15.289Z,97910.75
2023-11-25T06:47:43.051Z,97910.75
2023-11-25T06:50:11.093Z,97911.59
2023-11-25T06:52:37.623Z,97915.06
2023-11-25T06:55:05.530Z,97918.66
2023-11-25T06:57:32.041Z,97920.16
2023-11-25T06:59:58.531Z,97922.94
2023-11-25T07:02:28.305Z,97922.34
2023-11-25T07:04:54.976Z,97923.22
2023-11-25T07:07:22.063Z,97935.13
2023-11-25T07:09:48.626Z,97947.13
2023-11-25T07:12:16.474Z,97947.00
2023-11-25T07:14:44.065Z,97947.09
2023-11-25T07:17:13.180Z,97950.84
2023-11-25T07:19:42.488Z,97948.75
2023-11-25T07:22:12.198Z,97956.16
2023-11-25T07:24:40.774Z,97942.47
2023-11-25T07:27:08.174Z,97948.22
2023-11-25T07:29:36.163Z,97945.25
2023-11-25T07:32:03.427Z,97947.81
2023-11-25T07:34:33.192Z,97958.78
2023-11-25T07:37:00.626Z,97957.69
2023-11-25T07:39:30.762Z,97959.75
2023-11-25T07:41:59.094Z,97966.06
2023-11-25T07:44:28.106Z,97955.06
2023-11-25T07:46:54.913Z,97960.38
2023-11-25T07:49:21.486Z,97954.84
2023-11-25T07:51:49.768Z,97961.97
2023-11-25T07:54:17.008Z,97956.94
2023-11-25T07:56:43.555Z,97959.06
2023-11-25T07:59:11.017Z,97965.72
2023-11-25T08:01:38.410Z,97958.84
2023-11-25T08:04:05.972Z,97954.56
2023-11-25T08:06:32.633Z,97970.69
2023-11-25T08:08:59.792Z,97966.88
2023-11-25T08:11:27.734Z,97964.38
2023-11-25T08:13:54.622Z,97967.94
2023-11-25T08:16:21.484Z,97966.94
2023-11-25T08:18:48.542Z,97959.97
2023-11-25T08:21:15.881Z,97961.69
2023-11-25T08:23:43.476Z,97956.75
2023-11-25T08:26:20.517Z,97960.13
2023-11-25T08:28:47.380Z,97968.44
2023-11-25T08:31:13.967Z,97967.25
2023-11-25T08:33:42.154Z,97977.28
2023-11-25T08:36:11.119Z,97981.63
2023-11-25T08:38:38.630Z,97979.97
2023-11-25T08:41:08.301Z,97985.66
2023-11-25T08:43:44.928Z,97995.50
2023-11-25T08:46:11.826Z,97970.31
2023-11-25T08:48:38.652Z,98000.56
2023-11-25T08:51:08.992Z,97997.38
2023-11-25T08:53:35.806Z,97994.56
2023-11-25T08:56:04.198Z,97994.81
2023-11-25T08:58:30.790Z,97997.00
2023-11-25T09:00:57.666Z,97996.44
2023-11-25T09:03:24.383Z,98004.22
2023-11-25T09:05:51.115Z,97996.19
2023-11-25T09:08:17.906Z,97983.91
2023-11-25T09:10:44.653Z,98006.69
2023-11-25T09:13:12.074Z,97987.31
2023-11-25T09:15:41.945Z,98000.31
2023-11-25T09:18:09.428Z,98006.06
2023-11-25T09:20:35.972Z,97999.22
2023-11-25T09:23:02.534Z,98009.81
2023-11-25T09:25:31.325Z,97996.28
2023-11-25T09:27:58.075Z,97996.28
2023-11-25T09:30:25.402Z,97999.56
2023-11-25T09:32:51.990Z,97987.88
2023-11-25T09:35:18.592Z,97993.00
2023-11-25T09:37:46.420Z,97996.38
2023-11-25T09:40:16.527Z,97999.66
2023-11-25T09:42:44.600Z,98001.22
2023-11-25T09:45:12.225Z,97981.09
2023-11-25T09:47:39.513Z,97982.13
2023-11-25T09:50:07.308Z,97974.50
2023-11-25T09:52:40.807Z,97969.59
2023-11-25T09:55:10.285Z,97965.38
2023-11-25T09:57:37.717Z,97949.13
2023-11-25T10:00:07.684Z,97965.09
2023-11-25T10:02:36.411Z,97961.34
2023-11-25T10:05:06.220Z,97975.16
2023-11-25T10:07:32.914Z,97976.41
2023-11-25T10:09:59.452Z,97982.56
2023-11-25T10:12:25.943Z,97970.50
2023-11-25T10:14:53.994Z,97975.59
2023-11-25T10:17:25.164Z,97995.16
2023-11-25T10:20:07.342Z,98000.47
2023-11-25T10:22:45.518Z,98000.28
2023-11-25T10:25:12.064Z,97990.97
2023-11-25T10:27:41.730Z,97998.47
2023-11-25T10:30:09.781Z,98000.50
2023-11-25T10:32:36.546Z,97993.91
2023-11-25T10:35:03.803Z,98003.94
2023-11-25T10:37:33.697Z,97991.78
2023-11-25T10:40:00.569Z,97995.16
2023-11-25T10:42:29.008Z,98001.75
2023-11-25T10:44:55.528Z,98003.38
2023-11-25T10:47:32.381Z,97992.59
2023-11-25T10:50:04.903Z,98013.78
2023-11-25T10:52:39.633Z,98005.72
2023-11-25T10:55:09.985Z,97994.22
2023-11-25T10:57:37.661Z,97988.91
2023-11-25T11:00:13.926Z,98015.50
2023-11-25T11:02:51.942Z,97999.50
2023-11-25T11:05:30.510Z,97981.31
2023-11-25T11:08:02.223Z,97981.09
2023-11-25T11:10:39.426Z,97985.63
2023-11-25T11:13:09.500Z,97980.59
2023-11-25T11:15:38.620Z,97973.22
2023-11-25T11:18:19.690Z,97971.72
2023-11-25T11:20:47.783Z,97995.56
2023-11-25T11:23:16.949Z,97987.78
2023-11-25T11:25:51.942Z,97973.09
2023-11-25T11:28:26.467Z,97980.75
2023-11-25T11:31:30.611Z,97980.25
2023-11-25T11:33:57.406Z,97982.56
2023-11-25T11:36:31.299Z,97984.38
2023-11-25T11:38:58.269Z,97973.59
2023-11-25T11:41:26.278Z,97989.81
2023-11-25T11:44:13.151Z,97985.28
2023-11-25T11:46:43.257Z,97972.13
2023-11-25T11:49:13.030Z,97970.75
2023-11-25T11:52:01.554Z,97923.88
2023-11-25T11:54:29.580Z,97937.97
2023-11-25T11:56:59.056Z,97939.50
2023-11-25T11:59:58.737Z,97939.03
2023-11-25T12:02:28.615Z,97935.41
2023-11-25T12:04:56.010Z,97940.66
2023-11-25T12:07:22.616Z,97948.41
2023-11-25T12:09:49.455Z,97937.06
2023-11-25T12:12:16.059Z,97953.84
2023-11-25T12:14:42.710Z,97960.72
2023-11-25T12:17:09.869Z,97959.50
2023-11-25T12:19:36.440Z,97962.97
2023-11-25T12:22:07.105Z,97948.19
2023-11-25T12:24:36.393Z,97948.06
2023-11-25T12:27:06.550Z,97946.44
2023-11-25T12:29:36.339Z,97945.53
2023-11-25T12:32:03.301Z,97943.78
2023-11-25T12:34:33.601Z,97925.78
2023-11-25T12:37:01.219Z,97940.66
2023-11-25T12:39:28.197Z,97964.06
2023-11-25T12:41:54.974Z,97959.84
2023-11-25T12:44:22.083Z,97951.09
2023-11-25T12:47:02.849Z,97951.28
2023-11-25T12:49:30.759Z,97954.41
2023-11-25T12:51:57.700Z,97958.94
2023-11-25T12:54:24.712Z,97960.19
2023-11-25T12:56:56.052Z,97981.72
2023-11-25T12:59:29.560Z,97964.59
2023-11-25T13:02:04.405Z,97985.03
2023-11-25T13:04:31.002Z,98004.31
2023-11-25T13:07:01.031Z,97994.25
2023-11-25T13:09:32.497Z,98021.13
2023-11-25T13:12:00.063Z,98014.25
2023-11-25T13:14:26.667Z,98003.53
2023-11-25T13:16:53.271Z,98006.97
2023-11-25T13:19:23.119Z,98018.38
2023-11-25T13:21:50.234Z,98011.16
2023-11-25T13:24:16.923Z,98005.03
2023-11-25T13:26:43.793Z,98025.50
2023-11-25T13:29:10.956Z,98008.31
2023-11-25T13:31:37.567Z,98033.38
2023-11-25T13:34:06.451Z,98007.59
2023-11-25T13:36:33.059Z,98022.19
2023-11-25T13:38:59.970Z,98051.22
2023-11-25T13:41:27.765Z,98039.44
2023-11-25T13:43:55.668Z,98048.91
2023-11-25T13:46:22.398Z,98059.84
2023-11-25T13:48:49.095Z,98045.16
2023-11-25T13:51:16.260Z,98048.88
2023-11-25T13:53:42.830Z,98046.25
2023-11-25T13:56:11.315Z,98056.34
2023-11-25T13:58:37.959Z,98070.91
2023-11-25T14:01:06.064Z,98051.78
2023-11-25T14:03:32.913Z,98069.44
2023-11-25T14:05:59.597Z,98066.03
2023-11-25T14:08:29.808Z,98069.59
2023-11-25T14:10:57.240Z,98078.91
2023-11-25T14:13:24.704Z,98083.50
2023-11-25T14:15:51.392Z,98068.69
2023-11-25T14:18:17.905Z,98084.59
2023-11-25T14:20:44.522Z,98097.03
2023-11-25T14:23:11.476Z,98086.63
2023-11-25T14:25:38.321Z,98097.97
2023-11-25T14:28:05.155Z,98106.19
2023-11-25T14:30:34.486Z,98094.66
2023-11-25T14:33:04.793Z,98101.34
2023-11-25T14:35:33.051Z,98102.06
2023-11-25T14:38:01.811Z,98107.19
2023-11-25T14:40:30.379Z,98103.31
2023-11-25T14:42:57.158Z,98111.16
2023-11-25T14:45:23.660Z,98111.16
2023-11-25T14:47:50.247Z,98111.38
2023-11-25T14:50:16.825Z,98119.28
2023-11-25T14:52:43.358Z,98088.94
2023-11-25T14:55:10.829Z,98099.00
2023-11-25T14:57:37.749Z,98098.28
2023-11-25T15:00:06.496Z,98108.72
2023-11-25T15:02:33.106Z,98112.53
2023-11-25T15:04:59.703Z,98125.97
2023-11-25T15:07:26.302Z,98133.56
2023-11-25T15:09:52.814Z,98138.91
2023-11-25T15:12:19.332Z,98134.09
2023-11-25T15:14:45.824Z,98136.00
2023-11-25T15:17:13.012Z,98148.94
2023-11-25T15:19:42.311Z,98142.16
2023-11-25T15:22:11.353Z,98142.88
2023-11-25T15:24:41.013Z,98151.75
2023-11-25T15:27:08.430Z,98156.25
2023-11-25T15:29:34.988Z,98165.56
2023-11-25T15:32:01.586Z,98160.53
2023-11-25T15:34:28.128Z,98173.00
2023-11-25T15:36:55.001Z,98166.81
2023-11-25T15:39:25.558Z,98163.19
2023-11-25T15:41:52.036Z,98172.81
2023-11-25T15:44:18.615Z,98166.94
2023-11-25T15:46:46.022Z,98167.03
2023-11-25T15:49:13.548Z,98172.59
2023-11-25T15:51:41.028Z,98174.72
2023-11-25T15:54:07.703Z,98180.41
2023-11-25T15:56:34.279Z,98181.78
2023-11-25T15:59:02.421Z,98181.03
2023-11-25T16:01:29.823Z,98181.41
2023-11-25T16:03:57.789Z,98189.81
2023-11-25T16:06:25.924Z,98183.97
2023-11-25T16:08:52.872Z,98189.50
2023-11-25T16:11:19.707Z,98200.47
2023-11-25T16:13:46.248Z,98194.47
2023-11-25T16:16:12.951Z,98212.03
2023-11-25T16:18:39.826Z,98213.56
2023-11-25T16:21:06.635Z,98212.06
2023-11-25T16:23:35.447Z,98221.00
2023-11-25T16:26:03.708Z,98208.97
2023-11-25T16:28:31.892Z,98218.56
2023-11-25T16:30:59.242Z,98235.09
2023-11-25T16:33:25.842Z,98221.59
2023-11-25T16:35:52.483Z,98246.03
2023-11-25T16:38:21.139Z,98222.88
2023-11-25T16:40:47.799Z,98250.97
2023-11-25T16:43:14.497Z,98245.22
2023-11-25T16:45:41.026Z,98244.38
2023-11-25T16:48:07.546Z,98247.34
2023-11-25T16:50:38.880Z,98268.00
2023-11-25T16:53:06.094Z,98259.25
2023-11-25T16:55:32.692Z,98266.06
2023-11-25T16:57:59.604Z,98265.25
2023-11-25T17:00:26.232Z,98268.47
2023-11-25T17:02:52.840Z,98263.81
2023-11-25T17:05:19.508Z,98272.44
2023-11-25T17:07:46.578Z,98269.75
2023-11-25T17:10:13.100Z,98290.22
2023-11-25T17:12:39.533Z,98295.31
2023-11-25T17:15:06.409Z,98295.47
2023-11-25T17:17:33.075Z,98312.41
2023-11-25T17:19:59.864Z,98294.28
2023-11-25T17:22:26.455Z,98300.56
2023-11-25T17:24:52.955Z,98299.94
2023-11-25T17:27:19.449Z,98301.81
2023-11-25T17:29:46.016Z,98305.78
2023-11-25T17:32:13.239Z,98299.19
2023-11-25T17:34:39.809Z,98318.06
2023-11-25T17:37:06.781Z,98322.25
2023-11-25T17:39:34.410Z,98316.97
2023-11-25T17:42:01.050Z,98310.97
2023-11-25T17:44:27.556Z,98309.25
2023-11-25T17:46:54.128Z,98316.47
2023-11-25T17:49:20.662Z,98314.81
2023-11-25T17:51:47.938Z,98317.78
2023-11-25T17:54:14.447Z,98311.19
2023-11-25T17:56:40.968Z,98317.44
2023-11-25T17:59:07.578Z,98302.75
2023-11-25T18:01:34.337Z,98310.63
2023-11-25T18:04:01.013Z,98293.19
2023-11-25T18:06:27.527Z,98303.06
2023-11-25T18:08:54.115Z,98297.81
2023-11-25T18:11:20.778Z,98307.66
2023-11-25T18:13:48.591Z,98317.66
2023-11-25T18:16:18.259Z,98311.19
2023-11-25T18:18:44.873Z,98310.34
2023-11-25T18:21:12.139Z,98315.31
2023-11-25T18:23:39.005Z,98309.09
2023-11-25T18:26:05.838Z,98315.59
2023-11-25T18:28:32.740Z,98319.03
2023-11-25T18:30:59.606Z,98319.03
2023-11-25T18:33:26.661Z,98314.34
2023-11-25T18:35:53.160Z,98321.22
2023-11-25T18:38:19.820Z,98312.19
2023-11-25T18:40:46.451Z,98311.78
2023-11-25T18:43:13.289Z,98318.34
2023-11-25T18:45:39.963Z,98309.69
2023-11-25T18:48:07.875Z,98307.78
2023-11-25T18:50:35.104Z,98330.25
2023-11-25T18:53:01.942Z,98311.56
2023-11-25T18:55:28.539Z,98313.47
2023-11-25T18:57:55.082Z,98320.47
2023-11-25T19:00:21.763Z,98305.72
2023-11-25T19:02:48.955Z,98327.22
2023-11-25T19:05:16.657Z,98319.03
2023-11-25T19:07:45.244Z,98313.94
2023-11-25T19:10:11.966Z,98320.41
2023-11-25T19:12:38.516Z,98317.72
2023-11-25T19:15:05.717Z,98321.09
2023-11-25T19:17:32.336Z,98331.44
2023-11-25T19:19:58.951Z,98332.75
2023-11-25T19:22:25.452Z,98348.03
2023-11-25T19:24:51.938Z,98337.63
2023-11-25T19:27:18.473Z,98336.66
2023-11-25T19:29:44.972Z,98333.84
2023-11-25T19:32:11.616Z,98344.66
2023-11-25T19:34:38.729Z,98347.69
2023-11-25T19:37:05.538Z,98344.50
2023-11-25T19:39:32.086Z,98341.84
2023-11-25T19:41:59.166Z,98349.81
2023-11-25T19:44:25.708Z,98351.28
2023-11-25T19:46:55.879Z,98354.38
2023-11-25T19:49:22.798Z,98359.25
2023-11-25T19:51:50.123Z,98358.84
2023-11-25T19:54:22.754Z,98366.06
2023-11-25T19:56:52.566Z,98369.31
2023-11-25T19:59:19.992Z,98366.44
2023-11-25T20:01:46.780Z,98379.56
2023-11-25T20:04:13.372Z,98383.00
2023-11-25T20:06:39.904Z,98383.16
2023-11-25T20:09:06.859Z,98381.34
2023-11-25T20:11:33.439Z,98383.06
2023-11-25T20:14:00.699Z,98388.47
2023-11-25T20:16:33.494Z,98392.03
2023-11-25T20:19:00.530Z,98395.97
2023-11-25T20:21:27.083Z,98398.97
2023-11-25T20:23:53.616Z,98401.97
2023-11-25T20:26:20.174Z,98391.47
2023-11-25T20:28:47.162Z,98386.78
2023-11-25T20:31:13.964Z,98391.22
2023-11-25T20:33:42.005Z,98376.25
2023-11-25T20:36:14.274Z,98367.63
2023-11-25T20:38:41.484Z,98377.19
2023-11-25T20:41:13.812Z,98380.56
2023-11-25T20:43:40.404Z,98377.88
2023-11-25T20:46:07.098Z,98376.97
2023-11-25T20:48:34.778Z,98369.59
2023-11-25T20:51:06.165Z,98366.84
2023-11-25T20:53:33.253Z,98372.88
2023-11-25T20:55:59.842Z,98370.00
2023-11-25T20:58:28.726Z,98358.22
2023-11-25T21:00:56.246Z,98375.50
2023-11-25T21:03:23.013Z,98359.25
2023-11-25T21:05:49.609Z,98355.22
2023-11-25T21:08:17.074Z,98357.97
2023-11-25T21:10:43.765Z,98367.63
2023-11-25T21:13:10.274Z,98369.66
2023-11-25T21:15:36.834Z,98368.13
2023-11-25T21:18:04.157Z,98344.91
2023-11-25T21:20:30.705Z,98367.31
2023-11-25T21:22:57.184Z,98366.31
2023-11-25T21:25:23.762Z,98369.50
2023-11-25T21:27:50.974Z,98368.63
2023-11-25T21:30:17.650Z,98373.06
2023-11-25T21:32:44.192Z,98347.81
2023-11-25T21:35:10.856Z,98367.50
2023-11-25T21:37:37.425Z,98357.53
2023-11-25T21:40:13.388Z,98365.25
2023-11-25T21:42:46.919Z,98356.09
2023-11-25T21:45:14.177Z,98360.88
2023-11-25T21:47:41.104Z,98351.69
2023-11-25T21:50:08.506Z,98356.25
2023-11-25T21:52:37.117Z,98344.03
2023-11-25T21:55:04.836Z,98354.41
2023-11-25T21:57:31.382Z,98356.47
2023-11-25T21:59:57.897Z,98350.84
2023-11-25T22:02:25.223Z,98353.84
2023-11-25T22:04:51.951Z,98363.16
2023-11-25T22:07:18.473Z,98366.22
2023-11-25T22:09:44.929Z,98372.38
2023-11-25T22:12:12.178Z,98365.47
2023-11-25T22:14:38.812Z,98359.34
2023-11-25T22:17:05.431Z,98365.75
2023-11-25T22:19:31.950Z,98370.72
2023-11-25T22:21:58.335Z,98372.25
2023-11-25T22:24:26.681Z,98365.75
2023-11-25T22:27:10.914Z,98370.84
2023-11-25T22:29:37.571Z,98366.94
2023-11-25T22:32:04.918Z,98364.53
2023-11-25T22:34:31.534Z,98347.00
2023-11-25T22:36:58.646Z,98367.88
2023-11-25T22:39:25.280Z,98359.84
2023-11-25T22:41:52.017Z,98365.97
2023-11-25T22:44:19.179Z,98357.78
2023-11-25T22:46:45.911Z,98353.78
2023-11-25T22:49:12.498Z,98365.09
2023-11-25T22:51:39.042Z,98354.53
2023-11-25T22:54:05.627Z,98358.06
2023-11-25T22:56:32.084Z,98369.75
2023-11-25T22:58:58.510Z,98374.44
2023-11-25T23:01:36.793Z,98373.63
2023-11-25T23:04:03.984Z,98377.00
2023-11-25T23:06:36.199Z,98373.38
2023-11-25T23:09:05.568Z,98373.88
2023-11-25T23:11:32.737Z,98371.63
2023-11-25T23:14:00.246Z,98380.22
2023-11-25T23:16:26.998Z,98370.00
2023-11-25T23:18:53.517Z,98369.56
2023-11-25T23:21:19.996Z,98389.63
2023-11-25T23:23:48.856Z,98373.81
2023-11-25T23:26:16.196Z,98372.66
2023-11-25T23:28:42.985Z,98390.81
2023-11-25T23:31:09.868Z,98386.03
2023-11-25T23:33:36.473Z,98376.69
2023-11-25T23:36:05.187Z,98366.19
2023-11-25T23:38:32.413Z,98375.06
2023-11-25T23:40:59.421Z,98372.59
2023-11-25T23:43:26.084Z,98370.03
2023-11-25T23:45:52.649Z,98377.25
2023-11-25T23:48:19.123Z,98374.41
2023-11-25T23:50:45.604Z,98369.63
2023-11-25T23:53:13.195Z,98373.19
2023-11-25T23:55:40.713Z,98381.97
2023-11-25T23:58:07.283Z,98382.34
